sensor_id;sensor_type;location;lat;lon;timestamp;P1;durP1;ratioP1;P2;durP2;ratioP2
71975;SDS011;68326;52.124;5.424;2023-05-14T00:00:57;13.80;;;8.55;;
71975;SDS011;68326;52.124;5.424;2023-05-14T00:03:23;16.08;;;9.52;;
71975;SDS011;68326;52.124;5.424;2023-05-14T00:05:50;16.65;;;9.15;;
71975;SDS011;68326;52.124;5.424;2023-05-14T00:08:17;15.80;;;9.27;;
71975;SDS011;68326;52.124;5.424;2023-05-14T00:10:43;14.90;;;9.02;;
71975;SDS011;68326;52.124;5.424;2023-05-14T00:13:10;16.45;;;9.35;;
71975;SDS011;68326;52.124;5.424;2023-05-14T00:15:36;15.53;;;9.30;;
71975;SDS011;68326;52.124;5.424;2023-05-14T00:18:03;14.55;;;8.95;;
71975;SDS011;68326;52.124;5.424;2023-05-14T00:20:29;14.02;;;8.95;;
71975;SDS011;68326;52.124;5.424;2023-05-14T00:22:56;13.98;;;8.93;;
71975;SDS011;68326;52.124;5.424;2023-05-14T00:25:22;14.40;;;8.65;;
71975;SDS011;68326;52.124;5.424;2023-05-14T00:27:49;15.68;;;8.93;;
71975;SDS011;68326;52.124;5.424;2023-05-14T00:30:15;17.00;;;8.70;;
71975;SDS011;68326;52.124;5.424;2023-05-14T00:32:42;12.43;;;8.75;;
71975;SDS011;68326;52.124;5.424;2023-05-14T00:35:08;14.38;;;8.88;;
71975;SDS011;68326;52.124;5.424;2023-05-14T00:37:34;16.48;;;9.00;;
71975;SDS011;68326;52.124;5.424;2023-05-14T00:40:02;14.87;;;9.50;;
71975;SDS011;68326;52.124;5.424;2023-05-14T00:42:29;14.65;;;8.95;;
71975;SDS011;68326;52.124;5.424;2023-05-14T00:44:55;17.13;;;8.45;;
71975;SDS011;68326;52.124;5.424;2023-05-14T00:47:21;14.70;;;8.65;;
71975;SDS011;68326;52.124;5.424;2023-05-14T00:49:48;13.43;;;9.00;;
71975;SDS011;68326;52.124;5.424;2023-05-14T00:52:15;14.83;;;8.87;;
71975;SDS011;68326;52.124;5.424;2023-05-14T00:54:43;17.08;;;9.00;;
71975;SDS011;68326;52.124;5.424;2023-05-14T00:57:12;13.75;;;8.48;;
71975;SDS011;68326;52.124;5.424;2023-05-14T00:59:38;15.88;;;9.27;;
71975;SDS011;68326;52.124;5.424;2023-05-14T01:02:06;16.48;;;8.52;;
71975;SDS011;68326;52.124;5.424;2023-05-14T01:04:33;14.03;;;8.83;;
71975;SDS011;68326;52.124;5.424;2023-05-14T01:07:11;16.23;;;8.75;;
71975;SDS011;68326;52.124;5.424;2023-05-14T01:13:10;13.40;;;8.25;;
71975;SDS011;68326;52.124;5.424;2023-05-14T01:15:39;16.60;;;8.25;;
71975;SDS011;68326;52.124;5.424;2023-05-14T01:18:07;12.23;;;7.80;;
71975;SDS011;68326;52.124;5.424;2023-05-14T01:20:35;11.15;;;7.70;;
71975;SDS011;68326;52.124;5.424;2023-05-14T01:23:02;15.68;;;8.57;;
71975;SDS011;68326;52.124;5.424;2023-05-14T01:25:29;17.10;;;8.90;;
71975;SDS011;68326;52.124;5.424;2023-05-14T01:30:42;11.83;;;7.67;;
71975;SDS011;68326;52.124;5.424;2023-05-14T01:33:15;14.82;;;8.18;;
71975;SDS011;68326;52.124;5.424;2023-05-14T01:35:43;14.40;;;8.75;;
71975;SDS011;68326;52.124;5.424;2023-05-14T01:38:10;15.23;;;9.00;;
71975;SDS011;68326;52.124;5.424;2023-05-14T01:40:39;13.23;;;8.10;;
71975;SDS011;68326;52.124;5.424;2023-05-14T01:43:06;13.57;;;8.48;;
71975;SDS011;68326;52.124;5.424;2023-05-14T01:45:34;17.17;;;8.40;;
71975;SDS011;68326;52.124;5.424;2023-05-14T01:48:01;15.55;;;7.93;;
71975;SDS011;68326;52.124;5.424;2023-05-14T01:50:29;14.63;;;8.52;;
71975;SDS011;68326;52.124;5.424;2023-05-14T01:52:55;14.00;;;7.85;;
71975;SDS011;68326;52.124;5.424;2023-05-14T01:55:22;13.00;;;8.20;;
71975;SDS011;68326;52.124;5.424;2023-05-14T01:57:49;17.70;;;8.18;;
71975;SDS011;68326;52.124;5.424;2023-05-14T02:00:16;14.75;;;8.50;;
71975;SDS011;68326;52.124;5.424;2023-05-14T02:02:43;15.95;;;8.25;;
71975;SDS011;68326;52.124;5.424;2023-05-14T02:05:10;15.75;;;8.68;;
71975;SDS011;68326;52.124;5.424;2023-05-14T02:07:37;15.20;;;9.03;;
71975;SDS011;68326;52.124;5.424;2023-05-14T02:10:04;14.32;;;8.10;;
71975;SDS011;68326;52.124;5.424;2023-05-14T02:12:31;15.23;;;8.80;;
71975;SDS011;68326;52.124;5.424;2023-05-14T02:14:57;14.95;;;9.15;;
71975;SDS011;68326;52.124;5.424;2023-05-14T02:17:24;13.43;;;8.50;;
71975;SDS011;68326;52.124;5.424;2023-05-14T02:19:51;18.63;;;8.67;;
71975;SDS011;68326;52.124;5.424;2023-05-14T02:22:18;16.75;;;8.50;;
71975;SDS011;68326;52.124;5.424;2023-05-14T02:24:44;17.15;;;8.57;;
71975;SDS011;68326;52.124;5.424;2023-05-14T02:27:11;13.05;;;8.30;;
71975;SDS011;68326;52.124;5.424;2023-05-14T02:29:38;15.48;;;8.52;;
71975;SDS011;68326;52.124;5.424;2023-05-14T02:32:04;15.85;;;8.15;;
71975;SDS011;68326;52.124;5.424;2023-05-14T02:34:31;13.30;;;8.38;;
71975;SDS011;68326;52.124;5.424;2023-05-14T02:36:59;21.25;;;8.95;;
71975;SDS011;68326;52.124;5.424;2023-05-14T02:39:26;12.90;;;8.73;;
71975;SDS011;68326;52.124;5.424;2023-05-14T02:41:52;16.50;;;8.45;;
71975;SDS011;68326;52.124;5.424;2023-05-14T02:44:19;17.90;;;8.47;;
71975;SDS011;68326;52.124;5.424;2023-05-14T02:46:45;14.43;;;8.35;;
71975;SDS011;68326;52.124;5.424;2023-05-14T02:49:12;13.80;;;8.40;;
71975;SDS011;68326;52.124;5.424;2023-05-14T02:51:39;13.70;;;8.02;;
71975;SDS011;68326;52.124;5.424;2023-05-14T02:54:05;16.27;;;8.43;;
71975;SDS011;68326;52.124;5.424;2023-05-14T02:56:32;13.87;;;7.93;;
71975;SDS011;68326;52.124;5.424;2023-05-14T02:58:58;15.35;;;8.68;;
71975;SDS011;68326;52.124;5.424;2023-05-14T03:01:25;13.73;;;8.27;;
71975;SDS011;68326;52.124;5.424;2023-05-14T03:03:52;13.52;;;7.57;;
71975;SDS011;68326;52.124;5.424;2023-05-14T03:06:19;16.52;;;8.50;;
71975;SDS011;68326;52.124;5.424;2023-05-14T03:08:45;13.20;;;8.00;;
71975;SDS011;68326;52.124;5.424;2023-05-14T03:11:12;16.83;;;8.57;;
71975;SDS011;68326;52.124;5.424;2023-05-14T03:13:38;14.23;;;8.05;;
71975;SDS011;68326;52.124;5.424;2023-05-14T03:16:05;15.77;;;8.15;;
71975;SDS011;68326;52.124;5.424;2023-05-14T03:18:31;14.23;;;8.20;;
71975;SDS011;68326;52.124;5.424;2023-05-14T03:20:59;22.73;;;8.55;;
71975;SDS011;68326;52.124;5.424;2023-05-14T03:23:26;14.40;;;7.75;;
71975;SDS011;68326;52.124;5.424;2023-05-14T03:25:52;15.95;;;8.55;;
71975;SDS011;68326;52.124;5.424;2023-05-14T03:28:19;14.65;;;8.02;;
71975;SDS011;68326;52.124;5.424;2023-05-14T03:30:45;15.40;;;7.75;;
71975;SDS011;68326;52.124;5.424;2023-05-14T03:33:12;13.20;;;8.17;;
71975;SDS011;68326;52.124;5.424;2023-05-14T03:35:39;15.70;;;8.05;;
71975;SDS011;68326;52.124;5.424;2023-05-14T03:38:05;13.00;;;8.25;;
71975;SDS011;68326;52.124;5.424;2023-05-14T03:40:32;16.65;;;8.13;;
71975;SDS011;68326;52.124;5.424;2023-05-14T03:42:59;17.38;;;7.75;;
71975;SDS011;68326;52.124;5.424;2023-05-14T03:45:25;14.83;;;8.00;;
71975;SDS011;68326;52.124;5.424;2023-05-14T03:47:53;15.98;;;7.93;;
71975;SDS011;68326;52.124;5.424;2023-05-14T03:50:20;17.25;;;8.02;;
71975;SDS011;68326;52.124;5.424;2023-05-14T03:52:47;15.82;;;8.05;;
71975;SDS011;68326;52.124;5.424;2023-05-14T03:55:13;15.98;;;7.80;;
71975;SDS011;68326;52.124;5.424;2023-05-14T03:57:39;15.07;;;8.07;;
71975;SDS011;68326;52.124;5.424;2023-05-14T04:00:06;14.10;;;7.97;;
71975;SDS011;68326;52.124;5.424;2023-05-14T04:02:33;14.20;;;7.95;;
71975;SDS011;68326;52.124;5.424;2023-05-14T04:05:00;13.88;;;7.63;;
71975;SDS011;68326;52.124;5.424;2023-05-14T04:07:26;18.83;;;7.80;;
71975;SDS011;68326;52.124;5.424;2023-05-14T04:09:53;15.60;;;7.57;;
71975;SDS011;68326;52.124;5.424;2023-05-14T04:12:19;17.23;;;8.23;;
71975;SDS011;68326;52.124;5.424;2023-05-14T04:14:46;15.32;;;8.13;;
71975;SDS011;68326;52.124;5.424;2023-05-14T04:17:12;14.02;;;7.93;;
71975;SDS011;68326;52.124;5.424;2023-05-14T04:19:39;13.70;;;7.45;;
71975;SDS011;68326;52.124;5.424;2023-05-14T04:22:05;17.93;;;7.80;;
71975;SDS011;68326;52.124;5.424;2023-05-14T04:24:31;12.70;;;7.95;;
71975;SDS011;68326;52.124;5.424;2023-05-14T04:26:58;15.52;;;8.55;;
71975;SDS011;68326;52.124;5.424;2023-05-14T04:29:25;14.57;;;7.13;;
71975;SDS011;68326;52.124;5.424;2023-05-14T04:31:51;13.85;;;7.63;;
71975;SDS011;68326;52.124;5.424;2023-05-14T04:34:18;14.37;;;6.97;;
71975;SDS011;68326;52.124;5.424;2023-05-14T04:36:45;16.33;;;7.57;;
71975;SDS011;68326;52.124;5.424;2023-05-14T04:39:11;13.25;;;7.07;;
71975;SDS011;68326;52.124;5.424;2023-05-14T04:41:38;12.98;;;7.20;;
71975;SDS011;68326;52.124;5.424;2023-05-14T04:44:04;15.23;;;7.40;;
71975;SDS011;68326;52.124;5.424;2023-05-14T04:46:31;12.70;;;7.30;;
71975;SDS011;68326;52.124;5.424;2023-05-14T04:48:57;16.02;;;6.93;;
71975;SDS011;68326;52.124;5.424;2023-05-14T04:51:23;12.40;;;7.78;;
71975;SDS011;68326;52.124;5.424;2023-05-14T04:53:51;11.38;;;6.47;;
71975;SDS011;68326;52.124;5.424;2023-05-14T04:56:17;12.07;;;6.68;;
71975;SDS011;68326;52.124;5.424;2023-05-14T04:58:44;11.27;;;6.80;;
71975;SDS011;68326;52.124;5.424;2023-05-14T05:01:10;12.65;;;6.30;;
71975;SDS011;68326;52.124;5.424;2023-05-14T05:03:37;12.00;;;6.40;;
71975;SDS011;68326;52.124;5.424;2023-05-14T05:06:03;9.13;;;5.90;;
71975;SDS011;68326;52.124;5.424;2023-05-14T05:08:30;14.20;;;6.55;;
71975;SDS011;68326;52.124;5.424;2023-05-14T05:10:56;13.40;;;6.83;;
71975;SDS011;68326;52.124;5.424;2023-05-14T05:13:23;12.18;;;6.38;;
71975;SDS011;68326;52.124;5.424;2023-05-14T05:15:49;9.48;;;5.95;;
71975;SDS011;68326;52.124;5.424;2023-05-14T05:18:16;15.50;;;6.85;;
71975;SDS011;68326;52.124;5.424;2023-05-14T05:20:42;14.35;;;7.28;;
71975;SDS011;68326;52.124;5.424;2023-05-14T05:23:09;12.13;;;6.63;;
71975;SDS011;68326;52.124;5.424;2023-05-14T05:25:35;12.48;;;7.00;;
71975;SDS011;68326;52.124;5.424;2023-05-14T05:28:01;11.25;;;6.20;;
71975;SDS011;68326;52.124;5.424;2023-05-14T05:30:28;9.60;;;6.60;;
71975;SDS011;68326;52.124;5.424;2023-05-14T05:32:55;11.82;;;6.15;;
71975;SDS011;68326;52.124;5.424;2023-05-14T05:35:22;11.73;;;6.70;;
71975;SDS011;68326;52.124;5.424;2023-05-14T05:37:49;12.85;;;6.60;;
71975;SDS011;68326;52.124;5.424;2023-05-14T05:40:16;12.88;;;6.95;;
71975;SDS011;68326;52.124;5.424;2023-05-14T05:42:42;13.75;;;6.70;;
71975;SDS011;68326;52.124;5.424;2023-05-14T05:45:09;14.15;;;6.90;;
71975;SDS011;68326;52.124;5.424;2023-05-14T05:47:35;13.23;;;6.33;;
71975;SDS011;68326;52.124;5.424;2023-05-14T05:50:02;12.65;;;6.78;;
71975;SDS011;68326;52.124;5.424;2023-05-14T05:52:28;10.02;;;6.38;;
71975;SDS011;68326;52.124;5.424;2023-05-14T05:54:55;12.30;;;6.95;;
71975;SDS011;68326;52.124;5.424;2023-05-14T05:57:21;12.95;;;6.32;;
71975;SDS011;68326;52.124;5.424;2023-05-14T05:59:51;10.37;;;6.20;;
71975;SDS011;68326;52.124;5.424;2023-05-14T06:02:18;14.27;;;6.38;;
71975;SDS011;68326;52.124;5.424;2023-05-14T06:04:45;12.60;;;6.30;;
71975;SDS011;68326;52.124;5.424;2023-05-14T06:07:11;9.50;;;6.13;;
71975;SDS011;68326;52.124;5.424;2023-05-14T06:09:38;9.63;;;5.90;;
71975;SDS011;68326;52.124;5.424;2023-05-14T06:12:04;13.43;;;6.40;;
71975;SDS011;68326;52.124;5.424;2023-05-14T06:14:31;13.23;;;6.25;;
71975;SDS011;68326;52.124;5.424;2023-05-14T06:16:57;11.27;;;5.90;;
71975;SDS011;68326;52.124;5.424;2023-05-14T06:19:24;10.50;;;6.32;;
71975;SDS011;68326;52.124;5.424;2023-05-14T06:21:50;13.68;;;6.70;;
71975;SDS011;68326;52.124;5.424;2023-05-14T06:24:17;14.02;;;6.50;;
71975;SDS011;68326;52.124;5.424;2023-05-14T06:26:45;11.00;;;6.03;;
71975;SDS011;68326;52.124;5.424;2023-05-14T06:29:11;10.82;;;6.05;;
71975;SDS011;68326;52.124;5.424;2023-05-14T06:31:38;9.38;;;5.72;;
71975;SDS011;68326;52.124;5.424;2023-05-14T06:34:04;12.40;;;5.93;;
71975;SDS011;68326;52.124;5.424;2023-05-14T06:36:31;13.70;;;6.30;;
71975;SDS011;68326;52.124;5.424;2023-05-14T06:38:57;11.82;;;5.95;;
71975;SDS011;68326;52.124;5.424;2023-05-14T06:41:23;11.45;;;7.03;;
71975;SDS011;68326;52.124;5.424;2023-05-14T06:43:51;12.65;;;5.78;;
71975;SDS011;68326;52.124;5.424;2023-05-14T06:46:17;12.43;;;6.30;;
71975;SDS011;68326;52.124;5.424;2023-05-14T06:48:44;11.33;;;6.03;;
71975;SDS011;68326;52.124;5.424;2023-05-14T06:51:10;14.38;;;6.15;;
71975;SDS011;68326;52.124;5.424;2023-05-14T06:53:38;10.27;;;5.95;;
71975;SDS011;68326;52.124;5.424;2023-05-14T06:56:05;13.40;;;5.85;;
71975;SDS011;68326;52.124;5.424;2023-05-14T06:58:32;11.27;;;6.20;;
71975;SDS011;68326;52.124;5.424;2023-05-14T07:00:58;9.73;;;5.77;;
71975;SDS011;68326;52.124;5.424;2023-05-14T07:03:25;11.50;;;6.25;;
71975;SDS011;68326;52.124;5.424;2023-05-14T07:05:51;8.43;;;5.43;;
71975;SDS011;68326;52.124;5.424;2023-05-14T07:08:18;12.43;;;5.85;;
71975;SDS011;68326;52.124;5.424;2023-05-14T07:10:44;9.80;;;5.93;;
71975;SDS011;68326;52.124;5.424;2023-05-14T07:13:10;9.45;;;5.75;;
71975;SDS011;68326;52.124;5.424;2023-05-14T07:15:37;11.55;;;6.38;;
71975;SDS011;68326;52.124;5.424;2023-05-14T07:18:03;8.50;;;5.43;;
71975;SDS011;68326;52.124;5.424;2023-05-14T07:20:30;12.80;;;6.85;;
71975;SDS011;68326;52.124;5.424;2023-05-14T07:22:56;10.77;;;6.20;;
71975;SDS011;68326;52.124;5.424;2023-05-14T07:25:23;10.80;;;6.05;;
71975;SDS011;68326;52.124;5.424;2023-05-14T07:27:49;12.93;;;5.97;;
71975;SDS011;68326;52.124;5.424;2023-05-14T07:30:16;11.80;;;5.95;;
71975;SDS011;68326;52.124;5.424;2023-05-14T07:32:42;11.88;;;5.35;;
71975;SDS011;68326;52.124;5.424;2023-05-14T07:35:09;8.27;;;5.47;;
71975;SDS011;68326;52.124;5.424;2023-05-14T07:37:36;9.30;;;5.90;;
71975;SDS011;68326;52.124;5.424;2023-05-14T07:40:03;9.53;;;5.60;;
71975;SDS011;68326;52.124;5.424;2023-05-14T07:42:30;12.00;;;5.85;;
71975;SDS011;68326;52.124;5.424;2023-05-14T07:45:02;9.75;;;5.78;;
71975;SDS011;68326;52.124;5.424;2023-05-14T07:47:29;12.20;;;6.47;;
71975;SDS011;68326;52.124;5.424;2023-05-14T07:49:56;15.43;;;6.88;;
71975;SDS011;68326;52.124;5.424;2023-05-14T07:52:23;10.33;;;6.57;;
71975;SDS011;68326;52.124;5.424;2023-05-14T07:54:50;11.80;;;6.90;;
71975;SDS011;68326;52.124;5.424;2023-05-14T07:57:17;12.30;;;6.57;;
71975;SDS011;68326;52.124;5.424;2023-05-14T07:59:44;10.27;;;6.47;;
71975;SDS011;68326;52.124;5.424;2023-05-14T08:02:11;11.13;;;7.15;;
71975;SDS011;68326;52.124;5.424;2023-05-14T08:04:39;14.23;;;6.43;;
71975;SDS011;68326;52.124;5.424;2023-05-14T08:07:05;11.52;;;7.10;;
71975;SDS011;68326;52.124;5.424;2023-05-14T08:09:33;11.35;;;6.80;;
71975;SDS011;68326;52.124;5.424;2023-05-14T08:12:00;9.85;;;7.07;;
71975;SDS011;68326;52.124;5.424;2023-05-14T08:14:26;12.32;;;7.43;;
71975;SDS011;68326;52.124;5.424;2023-05-14T08:16:53;12.87;;;7.43;;
71975;SDS011;68326;52.124;5.424;2023-05-14T08:19:20;10.80;;;7.07;;
71975;SDS011;68326;52.124;5.424;2023-05-14T08:21:46;10.70;;;7.28;;
71975;SDS011;68326;52.124;5.424;2023-05-14T08:24:13;10.45;;;7.53;;
71975;SDS011;68326;52.124;5.424;2023-05-14T08:26:40;10.13;;;7.43;;
71975;SDS011;68326;52.124;5.424;2023-05-14T08:29:07;9.60;;;7.30;;
71975;SDS011;68326;52.124;5.424;2023-05-14T08:31:36;14.40;;;7.72;;
71975;SDS011;68326;52.124;5.424;2023-05-14T08:34:02;14.18;;;7.72;;
71975;SDS011;68326;52.124;5.424;2023-05-14T08:36:29;11.73;;;7.85;;
71975;SDS011;68326;52.124;5.424;2023-05-14T08:38:55;10.38;;;7.35;;
71975;SDS011;68326;52.124;5.424;2023-05-14T08:41:21;12.50;;;6.83;;
71975;SDS011;68326;52.124;5.424;2023-05-14T08:43:56;13.10;;;7.30;;
71975;SDS011;68326;52.124;5.424;2023-05-14T08:46:43;12.15;;;7.82;;
71975;SDS011;68326;52.124;5.424;2023-05-14T08:52:02;11.40;;;7.03;;
71975;SDS011;68326;52.124;5.424;2023-05-14T08:54:29;12.77;;;7.07;;
71975;SDS011;68326;52.124;5.424;2023-05-14T08:56:57;11.35;;;6.78;;
71975;SDS011;68326;52.124;5.424;2023-05-14T08:59:24;10.65;;;6.80;;
71975;SDS011;68326;52.124;5.424;2023-05-14T09:01:52;10.93;;;6.97;;
71975;SDS011;68326;52.124;5.424;2023-05-14T09:04:20;9.93;;;6.88;;
71975;SDS011;68326;52.124;5.424;2023-05-14T09:06:49;10.43;;;6.53;;
71975;SDS011;68326;52.124;5.424;2023-05-14T09:09:17;13.43;;;6.13;;
71975;SDS011;68326;52.124;5.424;2023-05-14T09:11:50;8.88;;;6.43;;
71975;SDS011;68326;52.124;5.424;2023-05-14T09:14:18;10.38;;;6.35;;
71975;SDS011;68326;52.124;5.424;2023-05-14T09:16:46;8.98;;;7.13;;
71975;SDS011;68326;52.124;5.424;2023-05-14T09:19:14;11.50;;;7.30;;
71975;SDS011;68326;52.124;5.424;2023-05-14T09:21:44;13.02;;;6.63;;
71975;SDS011;68326;52.124;5.424;2023-05-14T09:24:18;11.35;;;6.53;;
71975;SDS011;68326;52.124;5.424;2023-05-14T09:26:48;10.60;;;6.47;;
71975;SDS011;68326;52.124;5.424;2023-05-14T09:29:16;8.63;;;5.90;;
71975;SDS011;68326;52.124;5.424;2023-05-14T09:31:43;9.60;;;6.57;;
71975;SDS011;68326;52.124;5.424;2023-05-14T09:34:10;10.48;;;6.00;;
71975;SDS011;68326;52.124;5.424;2023-05-14T09:36:37;8.73;;;6.20;;
71975;SDS011;68326;52.124;5.424;2023-05-14T09:39:03;12.63;;;6.28;;
71975;SDS011;68326;52.124;5.424;2023-05-14T09:41:30;11.10;;;6.05;;
71975;SDS011;68326;52.124;5.424;2023-05-14T09:43:56;9.97;;;6.23;;
71975;SDS011;68326;52.124;5.424;2023-05-14T09:46:23;10.95;;;6.15;;
71975;SDS011;68326;52.124;5.424;2023-05-14T09:48:52;10.38;;;6.15;;
71975;SDS011;68326;52.124;5.424;2023-05-14T09:51:21;8.95;;;5.90;;
71975;SDS011;68326;52.124;5.424;2023-05-14T09:53:47;11.13;;;6.93;;
71975;SDS011;68326;52.124;5.424;2023-05-14T09:56:17;12.27;;;6.20;;
71975;SDS011;68326;52.124;5.424;2023-05-14T09:58:44;9.88;;;6.57;;
71975;SDS011;68326;52.124;5.424;2023-05-14T10:01:10;9.30;;;6.00;;
71975;SDS011;68326;52.124;5.424;2023-05-14T10:03:37;8.70;;;6.13;;
71975;SDS011;68326;52.124;5.424;2023-05-14T10:06:04;10.52;;;5.70;;
71975;SDS011;68326;52.124;5.424;2023-05-14T10:08:32;8.60;;;5.63;;
71975;SDS011;68326;52.124;5.424;2023-05-14T10:11:00;6.47;;;5.03;;
71975;SDS011;68326;52.124;5.424;2023-05-14T10:13:32;9.68;;;6.50;;
71975;SDS011;68326;52.124;5.424;2023-05-14T10:16:27;9.00;;;5.20;;
71975;SDS011;68326;52.124;5.424;2023-05-14T10:18:59;10.00;;;5.82;;
71975;SDS011;68326;52.124;5.424;2023-05-14T10:21:31;8.73;;;5.57;;
71975;SDS011;68326;52.124;5.424;2023-05-14T10:24:04;11.13;;;6.00;;
71975;SDS011;68326;52.124;5.424;2023-05-14T10:26:33;10.70;;;5.60;;
71975;SDS011;68326;52.124;5.424;2023-05-14T10:29:04;11.35;;;6.50;;
71975;SDS011;68326;52.124;5.424;2023-05-14T10:31:47;10.48;;;5.95;;
71975;SDS011;68326;52.124;5.424;2023-05-14T10:34:31;9.90;;;5.90;;
71975;SDS011;68326;52.124;5.424;2023-05-14T10:36:59;13.63;;;5.45;;
71975;SDS011;68326;52.124;5.424;2023-05-14T10:39:43;10.80;;;5.95;;
71975;SDS011;68326;52.124;5.424;2023-05-14T10:42:19;11.52;;;5.60;;
71975;SDS011;68326;52.124;5.424;2023-05-14T10:44:59;10.18;;;5.13;;
71975;SDS011;68326;52.124;5.424;2023-05-14T10:47:33;13.33;;;6.00;;
71975;SDS011;68326;52.124;5.424;2023-05-14T10:50:02;7.80;;;5.05;;
71975;SDS011;68326;52.124;5.424;2023-05-14T10:52:30;9.07;;;5.35;;
71975;SDS011;68326;52.124;5.424;2023-05-14T10:54:58;9.70;;;5.43;;
71975;SDS011;68326;52.124;5.424;2023-05-14T10:57:29;8.63;;;5.43;;
71975;SDS011;68326;52.124;5.424;2023-05-14T10:59:58;8.93;;;5.10;;
71975;SDS011;68326;52.124;5.424;2023-05-14T11:02:27;10.13;;;5.10;;
71975;SDS011;68326;52.124;5.424;2023-05-14T11:05:02;5.53;;;4.50;;
71975;SDS011;68326;52.124;5.424;2023-05-14T11:07:37;9.27;;;5.05;;
71975;SDS011;68326;52.124;5.424;2023-05-14T11:10:08;12.80;;;6.57;;
71975;SDS011;68326;52.124;5.424;2023-05-14T11:12:36;7.47;;;4.63;;
71975;SDS011;68326;52.124;5.424;2023-05-14T11:15:08;7.97;;;5.25;;
71975;SDS011;68326;52.124;5.424;2023-05-14T11:17:37;7.15;;;5.07;;
71975;SDS011;68326;52.124;5.424;2023-05-14T11:20:05;9.82;;;5.28;;
71975;SDS011;68326;52.124;5.424;2023-05-14T11:22:33;8.73;;;5.20;;
71975;SDS011;68326;52.124;5.424;2023-05-14T11:25:00;8.30;;;5.10;;
71975;SDS011;68326;52.124;5.424;2023-05-14T11:27:27;9.65;;;5.30;;
71975;SDS011;68326;52.124;5.424;2023-05-14T11:29:55;8.25;;;5.20;;
71975;SDS011;68326;52.124;5.424;2023-05-14T11:32:23;8.88;;;5.60;;
71975;SDS011;68326;52.124;5.424;2023-05-14T11:34:49;9.07;;;5.15;;
71975;SDS011;68326;52.124;5.424;2023-05-14T11:37:16;9.23;;;5.50;;
71975;SDS011;68326;52.124;5.424;2023-05-14T11:39:52;7.50;;;5.13;;
71975;SDS011;68326;52.124;5.424;2023-05-14T11:42:20;8.27;;;5.40;;
71975;SDS011;68326;52.124;5.424;2023-05-14T11:44:48;8.82;;;5.35;;
71975;SDS011;68326;52.124;5.424;2023-05-14T11:47:17;6.75;;;5.47;;
71975;SDS011;68326;52.124;5.424;2023-05-14T11:49:46;6.23;;;4.97;;
71975;SDS011;68326;52.124;5.424;2023-05-14T11:52:14;8.35;;;4.90;;
71975;SDS011;68326;52.124;5.424;2023-05-14T11:54:42;12.52;;;5.35;;
71975;SDS011;68326;52.124;5.424;2023-05-14T11:57:10;6.80;;;4.95;;
71975;SDS011;68326;52.124;5.424;2023-05-14T11:59:39;7.50;;;4.60;;
71975;SDS011;68326;52.124;5.424;2023-05-14T12:02:13;9.50;;;5.40;;
71975;SDS011;68326;52.124;5.424;2023-05-14T12:04:42;7.50;;;5.15;;
71975;SDS011;68326;52.124;5.424;2023-05-14T12:07:12;8.13;;;4.82;;
71975;SDS011;68326;52.124;5.424;2023-05-14T12:09:41;5.35;;;4.30;;
71975;SDS011;68326;52.124;5.424;2023-05-14T12:12:16;6.05;;;4.55;;
71975;SDS011;68326;52.124;5.424;2023-05-14T12:14:44;8.17;;;4.50;;
71975;SDS011;68326;52.124;5.424;2023-05-14T12:17:18;8.48;;;4.90;;
71975;SDS011;68326;52.124;5.424;2023-05-14T12:19:48;7.28;;;4.70;;
71975;SDS011;68326;52.124;5.424;2023-05-14T12:22:17;9.07;;;5.15;;
71975;SDS011;68326;52.124;5.424;2023-05-14T12:24:53;6.22;;;4.28;;
71975;SDS011;68326;52.124;5.424;2023-05-14T12:27:24;9.97;;;5.40;;
71975;SDS011;68326;52.124;5.424;2023-05-14T12:30:02;6.82;;;4.60;;
71975;SDS011;68326;52.124;5.424;2023-05-14T12:32:33;8.15;;;4.70;;
71975;SDS011;68326;52.124;5.424;2023-05-14T12:35:00;8.45;;;4.45;;
71975;SDS011;68326;52.124;5.424;2023-05-14T12:37:27;9.00;;;4.80;;
71975;SDS011;68326;52.124;5.424;2023-05-14T12:39:56;9.37;;;4.53;;
71975;SDS011;68326;52.124;5.424;2023-05-14T12:42:22;8.52;;;4.82;;
71975;SDS011;68326;52.124;5.424;2023-05-14T12:44:49;8.98;;;4.57;;
71975;SDS011;68326;52.124;5.424;2023-05-14T12:47:15;7.53;;;5.00;;
71975;SDS011;68326;52.124;5.424;2023-05-14T12:49:42;9.88;;;6.03;;
71975;SDS011;68326;52.124;5.424;2023-05-14T12:52:08;5.90;;;4.00;;
71975;SDS011;68326;52.124;5.424;2023-05-14T12:54:38;11.80;;;4.60;;
71975;SDS011;68326;52.124;5.424;2023-05-14T12:57:08;7.97;;;4.53;;
71975;SDS011;68326;52.124;5.424;2023-05-14T12:59:34;7.65;;;4.93;;
71975;SDS011;68326;52.124;5.424;2023-05-14T13:02:01;7.72;;;5.10;;
71975;SDS011;68326;52.124;5.424;2023-05-14T13:04:27;8.27;;;4.90;;
71975;SDS011;68326;52.124;5.424;2023-05-14T13:06:54;9.20;;;4.63;;
71975;SDS011;68326;52.124;5.424;2023-05-14T13:09:20;8.70;;;4.78;;
71975;SDS011;68326;52.124;5.424;2023-05-14T13:11:46;9.05;;;4.70;;
71975;SDS011;68326;52.124;5.424;2023-05-14T13:14:13;10.68;;;4.70;;
71975;SDS011;68326;52.124;5.424;2023-05-14T13:16:39;6.83;;;4.90;;
71975;SDS011;68326;52.124;5.424;2023-05-14T13:19:06;7.40;;;4.50;;
71975;SDS011;68326;52.124;5.424;2023-05-14T13:21:32;9.43;;;4.72;;
71975;SDS011;68326;52.124;5.424;2023-05-14T13:23:59;7.68;;;4.55;;
71975;SDS011;68326;52.124;5.424;2023-05-14T13:26:25;9.30;;;5.07;;
71975;SDS011;68326;52.124;5.424;2023-05-14T13:28:53;11.97;;;5.70;;
71975;SDS011;68326;52.124;5.424;2023-05-14T13:31:19;8.60;;;5.35;;
71975;SDS011;68326;52.124;5.424;2023-05-14T13:33:46;8.25;;;4.93;;
71975;SDS011;68326;52.124;5.424;2023-05-14T13:36:12;6.40;;;4.78;;
71975;SDS011;68326;52.124;5.424;2023-05-14T13:38:39;8.85;;;5.28;;
71975;SDS011;68326;52.124;5.424;2023-05-14T13:41:06;10.47;;;5.80;;
71975;SDS011;68326;52.124;5.424;2023-05-14T13:43:33;10.60;;;5.25;;
71975;SDS011;68326;52.124;5.424;2023-05-14T13:46:01;8.40;;;4.95;;
71975;SDS011;68326;52.124;5.424;2023-05-14T13:48:29;7.35;;;4.80;;
71975;SDS011;68326;52.124;5.424;2023-05-14T13:50:59;9.13;;;4.43;;
71975;SDS011;68326;52.124;5.424;2023-05-14T13:53:25;11.40;;;4.90;;
71975;SDS011;68326;52.124;5.424;2023-05-14T13:55:52;10.40;;;4.57;;
71975;SDS011;68326;52.124;5.424;2023-05-14T13:58:23;8.48;;;5.03;;
71975;SDS011;68326;52.124;5.424;2023-05-14T14:00:50;8.80;;;4.80;;
71975;SDS011;68326;52.124;5.424;2023-05-14T14:03:17;8.35;;;5.13;;
71975;SDS011;68326;52.124;5.424;2023-05-14T14:05:44;6.27;;;4.60;;
71975;SDS011;68326;52.124;5.424;2023-05-14T14:08:10;9.68;;;4.68;;
71975;SDS011;68326;52.124;5.424;2023-05-14T14:10:48;9.38;;;4.72;;
71975;SDS011;68326;52.124;5.424;2023-05-14T14:13:15;6.50;;;4.65;;
71975;SDS011;68326;52.124;5.424;2023-05-14T14:15:42;6.22;;;4.47;;
71975;SDS011;68326;52.124;5.424;2023-05-14T14:18:08;10.57;;;4.70;;
71975;SDS011;68326;52.124;5.424;2023-05-14T14:20:35;8.88;;;4.38;;
71975;SDS011;68326;52.124;5.424;2023-05-14T14:23:01;8.45;;;4.60;;
71975;SDS011;68326;52.124;5.424;2023-05-14T14:25:28;5.32;;;3.72;;
71975;SDS011;68326;52.124;5.424;2023-05-14T14:27:55;10.48;;;4.57;;
71975;SDS011;68326;52.124;5.424;2023-05-14T14:30:21;7.73;;;4.33;;
71975;SDS011;68326;52.124;5.424;2023-05-14T14:32:48;5.40;;;4.03;;
71975;SDS011;68326;52.124;5.424;2023-05-14T14:35:15;9.65;;;5.47;;
71975;SDS011;68326;52.124;5.424;2023-05-14T14:37:42;6.55;;;4.55;;
71975;SDS011;68326;52.124;5.424;2023-05-14T14:40:14;7.22;;;4.43;;
71975;SDS011;68326;52.124;5.424;2023-05-14T14:42:41;5.70;;;4.30;;
71975;SDS011;68326;52.124;5.424;2023-05-14T14:45:08;8.10;;;4.03;;
71975;SDS011;68326;52.124;5.424;2023-05-14T14:47:35;6.10;;;4.00;;
71975;SDS011;68326;52.124;5.424;2023-05-14T14:50:02;8.50;;;4.20;;